sensor_id;sensor_type;location;lat;lon;timestamp;pressure;altitude;pressure_sealevel;temperature;humidity
58771;BME280;44539;42.962;1.596;2023-02-21T00:00:31;97446.50;;;3.30;100.00
58771;BME280;44539;42.962;1.596;2023-02-21T00:03:15;97444.97;;;3.27;100.00
58771;BME280;44539;42.962;1.596;2023-02-21T00:05:59;97444.00;;;3.17;100.00
58771;BME280;44539;42.962;1.596;2023-02-21T00:08:43;97439.97;;;3.13;100.00
58771;BME280;44539;42.962;1.596;2023-02-21T00:11:27;97446.41;;;3.09;100.00
58771;BME280;44539;42.962;1.596;2023-02-21T00:14:11;97435.31;;;3.05;100.00
58771;BME280;44539;42.962;1.596;2023-02-21T00:16:55;97435.34;;;2.82;100.00
58771;BME280;44539;42.962;1.596;2023-02-21T00:19:39;97427.59;;;3.03;100.00
58771;BME280;44539;42.962;1.596;2023-02-21T00:22:23;97422.13;;;2.84;100.00
58771;BME280;44539;42.962;1.596;2023-02-21T00:25:07;97418.06;;;2.80;100.00
58771;BME280;44539;42.962;1.596;2023-02-21T00:27:51;97424.00;;;3.04;100.00
58771;BME280;44539;42.962;1.596;2023-02-21T00:30:35;97415.00;;;3.30;100.00
58771;BME280;44539;42.962;1.596;2023-02-21T00:33:19;97418.72;;;3.27;100.00
58771;BME280;44539;42.962;1.596;2023-02-21T00:36:03;97414.75;;;3.33;100.00
58771;BME280;44539;42.962;1.596;2023-02-21T00:38:47;97415.78;;;3.41;100.00
58771;BME280;44539;42.962;1.596;2023-02-21T00:41:31;97406.69;;;3.45;100.00
58771;BME280;44539;42.962;1.596;2023-02-21T00:44:15;97404.84;;;3.36;100.00
58771;BME280;44539;42.962;1.596;2023-02-21T00:47:00;97400.25;;;3.06;100.00
58771;BME280;44539;42.962;1.596;2023-02-21T00:49:44;97402.91;;;2.83;100.00
58771;BME280;44539;42.962;1.596;2023-02-21T00:52:28;97397.19;;;2.78;100.00
58771;BME280;44539;42.962;1.596;2023-02-21T00:55:12;97403.03;;;2.59;100.00
58771;BME280;44539;42.962;1.596;2023-02-21T00:57:56;97400.88;;;2.64;100.00
58771;BME280;44539;42.962;1.596;2023-02-21T01:00:40;97395.03;;;2.72;100.00
58771;BME280;44539;42.962;1.596;2023-02-21T01:03:24;97387.78;;;2.76;100.00
58771;BME280;44539;42.962;1.596;2023-02-21T01:06:10;97387.31;;;2.59;100.00
58771;BME280;44539;42.962;1.596;2023-02-21T01:08:54;97381.91;;;2.83;100.00
58771;BME280;44539;42.962;1.596;2023-02-21T01:11:38;97382.53;;;2.53;100.00
58771;BME280;44539;42.962;1.596;2023-02-21T01:14:22;97387.63;;;2.77;100.00
58771;BME280;44539;42.962;1.596;2023-02-21T01:17:06;97390.63;;;2.84;100.00
58771;BME280;44539;42.962;1.596;2023-02-21T01:19:50;97380.84;;;2.75;100.00
58771;BME280;44539;42.962;1.596;2023-02-21T01:22:34;97380.47;;;2.79;100.00
58771;BME280;44539;42.962;1.596;2023-02-21T01:25:18;97376.31;;;2.88;100.00
58771;BME280;44539;42.962;1.596;2023-02-21T01:28:02;97372.63;;;2.79;100.00
58771;BME280;44539;42.962;1.596;2023-02-21T01:30:46;97371.56;;;2.82;100.00
58771;BME280;44539;42.962;1.596;2023-02-21T01:33:40;97365.06;;;3.09;100.00
58771;BME280;44539;42.962;1.596;2023-02-21T01:36:24;97358.34;;;3.16;100.00
58771;BME280;44539;42.962;1.596;2023-02-21T01:39:09;97375.19;;;3.13;100.00
58771;BME280;44539;42.962;1.596;2023-02-21T01:41:53;97373.31;;;3.04;100.00
58771;BME280;44539;42.962;1.596;2023-02-21T01:44:41;97365.28;;;3.17;100.00
58771;BME280;44539;42.962;1.596;2023-02-21T01:47:25;97358.66;;;3.01;100.00
58771;BME280;44539;42.962;1.596;2023-02-21T01:50:15;97355.28;;;3.11;100.00
58771;BME280;44539;42.962;1.596;2023-02-21T01:53:04;97350.09;;;3.32;100.00
58771;BME280;44539;42.962;1.596;2023-02-21T01:55:49;97347.03;;;3.15;100.00
58771;BME280;44539;42.962;1.596;2023-02-21T01:58:34;97360.28;;;3.14;100.00
58771;BME280;44539;42.962;1.596;2023-02-21T02:02:14;97346.09;;;3.05;100.00
58771;BME280;44539;42.962;1.596;2023-02-21T02:04:55;97358.34;;;3.16;100.00
58771;BME280;44539;42.962;1.596;2023-02-21T02:07:40;97338.06;;;3.18;100.00
58771;BME280;44539;42.962;1.596;2023-02-21T02:10:24;97343.47;;;3.05;100.00
58771;BME280;44539;42.962;1.596;2023-02-21T02:26:49;97321.47;;;2.85;100.00
58771;BME280;44539;42.962;1.596;2023-02-21T02:35:28;97319.03;;;3.04;100.00
58771;BME280;44539;42.962;1.596;2023-02-21T02:40:56;97304.25;;;2.92;100.00
58771;BME280;44539;42.962;1.596;2023-02-21T02:43:45;97304.94;;;2.62;100.00
58771;BME280;44539;42.962;1.596;2023-02-21T02:46:29;97308.38;;;2.74;100.00
58771;BME280;44539;42.962;1.596;2023-02-21T02:51:46;97302.44;;;2.49;100.00
58771;BME280;44539;42.962;1.596;2023-02-21T02:54:12;97299.31;;;2.66;100.00
58771;BME280;44539;42.962;1.596;2023-02-21T02:56:37;97286.31;;;2.76;100.00
58771;BME280;44539;42.962;1.596;2023-02-21T02:59:29;97285.72;;;2.73;100.00
58771;BME280;44539;42.962;1.596;2023-02-21T03:08:05;97273.63;;;2.60;100.00
58771;BME280;44539;42.962;1.596;2023-02-21T03:10:47;97276.22;;;2.60;100.00
58771;BME280;44539;42.962;1.596;2023-02-21T03:16:57;97275.53;;;2.47;100.00
58771;BME280;44539;42.962;1.596;2023-02-21T03:19:27;97270.84;;;2.62;100.00
58771;BME280;44539;42.962;1.596;2023-02-21T03:21:58;97276.53;;;2.78;100.00
58771;BME280;44539;42.962;1.596;2023-02-21T03:24:25;97267.13;;;2.76;100.00
58771;BME280;44539;42.962;1.596;2023-02-21T03:26:56;97263.31;;;2.69;100.00
58771;BME280;44539;42.962;1.596;2023-02-21T03:29:24;97250.25;;;2.57;100.00
58771;BME280;44539;42.962;1.596;2023-02-21T03:32:29;97259.31;;;2.53;100.00
58771;BME280;44539;42.962;1.596;2023-02-21T03:34:55;97245.88;;;2.35;100.00
58771;BME280;44539;42.962;1.596;2023-02-21T03:37:30;97261.56;;;2.69;100.00
58771;BME280;44539;42.962;1.596;2023-02-21T03:39:56;97251.09;;;2.90;100.00
58771;BME280;44539;42.962;1.596;2023-02-21T03:42:21;97257.03;;;2.92;100.00
58771;BME280;44539;42.962;1.596;2023-02-21T03:44:47;97246.22;;;2.85;100.00
58771;BME280;44539;42.962;1.596;2023-02-21T03:47:12;97244.78;;;2.81;100.00
58771;BME280;44539;42.962;1.596;2023-02-21T03:49:38;97241.94;;;2.84;100.00
58771;BME280;44539;42.962;1.596;2023-02-21T03:52:03;97248.13;;;2.83;100.00
58771;BME280;44539;42.962;1.596;2023-02-21T03:54:29;97238.56;;;2.94;100.00
58771;BME280;44539;42.962;1.596;2023-02-21T03:56:54;97237.72;;;2.93;100.00
58771;BME280;44539;42.962;1.596;2023-02-21T03:59:20;97228.88;;;2.94;100.00
58771;BME280;44539;42.962;1.596;2023-02-21T04:01:45;97235.28;;;2.80;100.00
58771;BME280;44539;42.962;1.596;2023-02-21T04:04:11;97235.50;;;2.77;100.00
58771;BME280;44539;42.962;1.596;2023-02-21T04:06:36;97237.03;;;2.91;100.00
58771;BME280;44539;42.962;1.596;2023-02-21T04:09:01;97235.16;;;2.82;100.00
58771;BME280;44539;42.962;1.596;2023-02-21T04:11:27;97229.91;;;2.82;100.00
58771;BME280;44539;42.962;1.596;2023-02-21T04:13:52;97223.09;;;2.91;100.00
58771;BME280;44539;42.962;1.596;2023-02-21T04:16:18;97232.41;;;2.83;100.00
58771;BME280;44539;42.962;1.596;2023-02-21T04:18:43;97224.84;;;2.90;100.00
58771;BME280;44539;42.962;1.596;2023-02-21T04:21:09;97220.84;;;2.86;100.00
58771;BME280;44539;42.962;1.596;2023-02-21T04:23:34;97218.66;;;2.91;100.00
58771;BME280;44539;42.962;1.596;2023-02-21T04:26:00;97210.59;;;2.83;100.00
58771;BME280;44539;42.962;1.596;2023-02-21T04:28:25;97221.94;;;2.72;100.00
58771;BME280;44539;42.962;1.596;2023-02-21T04:30:51;97213.13;;;2.73;100.00
58771;BME280;44539;42.962;1.596;2023-02-21T04:33:16;97209.00;;;2.59;100.00
58771;BME280;44539;42.962;1.596;2023-02-21T04:35:42;97214.13;;;2.61;100.00
58771;BME280;44539;42.962;1.596;2023-02-21T04:38:07;97211.94;;;2.66;100.00
58771;BME280;44539;42.962;1.596;2023-02-21T04:40:32;97209.00;;;2.59;100.00
58771;BME280;44539;42.962;1.596;2023-02-21T04:42:58;97213.94;;;2.41;100.00
58771;BME280;44539;42.962;1.596;2023-02-21T04:45:23;97212.28;;;2.73;100.00
58771;BME280;44539;42.962;1.596;2023-02-21T04:47:49;97219.81;;;2.98;100.00
58771;BME280;44539;42.962;1.596;2023-02-21T04:50:14;97222.25;;;3.11;100.00
58771;BME280;44539;42.962;1.596;2023-02-21T04:52:39;97216.69;;;3.04;100.00
58771;BME280;44539;42.962;1.596;2023-02-21T04:55:06;97215.88;;;3.04;100.00
58771;BME280;44539;42.962;1.596;2023-02-21T04:57:32;97214.00;;;3.16;100.00
58771;BME280;44539;42.962;1.596;2023-02-21T04:59:58;97218.09;;;3.09;100.00
58771;BME280;44539;42.962;1.596;2023-02-21T05:02:24;97202.31;;;2.99;100.00
58771;BME280;44539;42.962;1.596;2023-02-21T05:04:50;97205.09;;;3.07;100.00
58771;BME280;44539;42.962;1.596;2023-02-21T05:07:16;97202.03;;;3.02;100.00
58771;BME280;44539;42.962;1.596;2023-02-21T05:09:41;97202.16;;;3.00;100.00
58771;BME280;44539;42.962;1.596;2023-02-21T05:12:06;97198.28;;;2.83;100.00
58771;BME280;44539;42.962;1.596;2023-02-21T05:14:36;97195.50;;;2.75;100.00
58771;BME280;44539;42.962;1.596;2023-02-21T05:17:02;97201.13;;;2.92;100.00
58771;BME280;44539;42.962;1.596;2023-02-21T05:19:28;97193.72;;;2.97;100.00
58771;BME280;44539;42.962;1.596;2023-02-21T05:21:58;97194.34;;;2.89;100.00
58771;BME280;44539;42.962;1.596;2023-02-21T05:24:25;97192.94;;;2.85;100.00
58771;BME280;44539;42.962;1.596;2023-02-21T05:26:51;97194.59;;;2.86;100.00
58771;BME280;44539;42.962;1.596;2023-02-21T05:29:17;97194.34;;;2.89;100.00
58771;BME280;44539;42.962;1.596;2023-02-21T05:31:43;97193.19;;;2.82;100.00
58771;BME280;44539;42.962;1.596;2023-02-21T05:34:09;97191.28;;;2.84;100.00
58771;BME280;44539;42.962;1.596;2023-02-21T05:36:35;97197.13;;;2.76;100.00
58771;BME280;44539;42.962;1.596;2023-02-21T05:39:00;97199.88;;;2.75;100.00
58771;BME280;44539;42.962;1.596;2023-02-21T05:41:25;97203.72;;;2.71;100.00
58771;BME280;44539;42.962;1.596;2023-02-21T05:43:51;97203.19;;;2.88;100.00
58771;BME280;44539;42.962;1.596;2023-02-21T05:46:23;97203.13;;;2.99;100.00
58771;BME280;44539;42.962;1.596;2023-02-21T05:48:49;97198.69;;;3.00;100.00
58771;BME280;44539;42.962;1.596;2023-02-21T05:51:15;97204.22;;;2.97;100.00
58771;BME280;44539;42.962;1.596;2023-02-21T05:53:41;97198.63;;;2.90;100.00
58771;BME280;44539;42.962;1.596;2023-02-21T05:56:06;97196.75;;;2.81;100.00
58771;BME280;44539;42.962;1.596;2023-02-21T05:58:32;97191.50;;;2.81;100.00
58771;BME280;44539;42.962;1.596;2023-02-21T06:00:58;97190.25;;;2.64;100.00
58771;BME280;44539;42.962;1.596;2023-02-21T06:03:23;97188.94;;;2.70;100.00
58771;BME280;44539;42.962;1.596;2023-02-21T06:05:49;97190.91;;;2.77;100.00
58771;BME280;44539;42.962;1.596;2023-02-21T06:08:14;97181.91;;;2.70;100.00
58771;BME280;44539;42.962;1.596;2023-02-21T06:10:39;97173.72;;;2.63;100.00
58771;BME280;44539;42.962;1.596;2023-02-21T06:13:05;97170.97;;;2.65;100.00
58771;BME280;44539;42.962;1.596;2023-02-21T06:15:30;97164.81;;;2.55;100.00
58771;BME280;44539;42.962;1.596;2023-02-21T06:17:56;97166.16;;;2.38;100.00
58771;BME280;44539;42.962;1.596;2023-02-21T06:20:21;97169.94;;;2.45;100.00
58771;BME280;44539;42.962;1.596;2023-02-21T06:22:46;97175.53;;;2.52;100.00
58771;BME280;44539;42.962;1.596;2023-02-21T06:25:13;97162.28;;;2.53;100.00
58771;BME280;44539;42.962;1.596;2023-02-21T06:27:39;97172.06;;;2.51;100.00
58771;BME280;44539;42.962;1.596;2023-02-21T06:30:05;97163.34;;;2.62;100.00
58771;BME280;44539;42.962;1.596;2023-02-21T06:32:31;97163.34;;;2.62;100.00
58771;BME280;44539;42.962;1.596;2023-02-21T06:34:56;97168.03;;;2.47;100.00
58771;BME280;44539;42.962;1.596;2023-02-21T06:37:22;97163.81;;;2.35;100.00
58771;BME280;44539;42.962;1.596;2023-02-21T06:39:48;97164.53;;;2.58;100.00
58771;BME280;44539;42.962;1.596;2023-02-21T06:42:14;97163.94;;;2.65;100.00
58771;BME280;44539;42.962;1.596;2023-02-21T06:44:44;97154.91;;;2.58;100.00
58771;BME280;44539;42.962;1.596;2023-02-21T06:47:10;97157.00;;;2.64;100.00
58771;BME280;44539;42.962;1.596;2023-02-21T06:49:35;97155.69;;;2.70;100.00
58771;BME280;44539;42.962;1.596;2023-02-21T06:52:01;97160.69;;;2.73;100.00
58771;BME280;44539;42.962;1.596;2023-02-21T06:54:26;97164.03;;;2.75;100.00
58771;BME280;44539;42.962;1.596;2023-02-21T06:56:54;97162.22;;;2.76;100.00
58771;BME280;44539;42.962;1.596;2023-02-21T06:59:19;97163.25;;;2.84;100.00
58771;BME280;44539;42.962;1.596;2023-02-21T07:01:45;97159.09;;;2.82;100.00
58771;BME280;44539;42.962;1.596;2023-02-21T07:04:10;97153.66;;;2.74;100.00
58771;BME280;44539;42.962;1.596;2023-02-21T07:06:36;97161.72;;;2.82;100.00
58771;BME280;44539;42.962;1.596;2023-02-21T07:09:01;97158.13;;;2.83;100.00
58771;BME280;44539;42.962;1.596;2023-02-21T07:11:27;97151.66;;;2.87;100.00
58771;BME280;44539;42.962;1.596;2023-02-21T07:13:55;97164.66;;;2.89;100.00
58771;BME280;44539;42.962;1.596;2023-02-21T07:16:24;97161.25;;;2.98;100.00
58771;BME280;44539;42.962;1.596;2023-02-21T07:18:49;97171.38;;;3.02;100.00
58771;BME280;44539;42.962;1.596;2023-02-21T07:21:16;97164.09;;;3.06;100.00
58771;BME280;44539;42.962;1.596;2023-02-21T07:23:43;97163.13;;;3.07;100.00
58771;BME280;44539;42.962;1.596;2023-02-21T07:26:09;97170.66;;;3.21;100.00
58771;BME280;44539;42.962;1.596;2023-02-21T07:28:35;97167.81;;;3.24;100.00
58771;BME280;44539;42.962;1.596;2023-02-21T07:31:00;97174.44;;;3.28;100.00
58771;BME280;44539;42.962;1.596;2023-02-21T07:33:26;97175.31;;;3.39;100.00
58771;BME280;44539;42.962;1.596;2023-02-21T07:35:51;97173.91;;;3.35;100.00
58771;BME280;44539;42.962;1.596;2023-02-21T07:38:26;97182.44;;;3.48;100.00
58771;BME280;44539;42.962;1.596;2023-02-21T07:40:55;97184.09;;;3.49;100.00
58771;BME280;44539;42.962;1.596;2023-02-21T07:43:21;97186.13;;;3.45;100.00
58771;BME280;44539;42.962;1.596;2023-02-21T07:45:47;97181.78;;;3.56;100.00
58771;BME280;44539;42.962;1.596;2023-02-21T07:48:12;97180.56;;;3.60;100.00
58771;BME280;44539;42.962;1.596;2023-02-21T07:50:41;97185.56;;;3.63;100.00
58771;BME280;44539;42.962;1.596;2023-02-21T07:53:07;97184.13;;;3.80;100.00
58771;BME280;44539;42.962;1.596;2023-02-21T07:55:33;97185.13;;;3.98;100.00
58771;BME280;44539;42.962;1.596;2023-02-21T07:57:58;97179.06;;;4.07;100.00
58771;BME280;44539;42.962;1.596;2023-02-21T08:00:24;97181.88;;;4.16;100.00
58771;BME280;44539;42.962;1.596;2023-02-21T08:02:49;97185.75;;;4.21;100.00
58771;BME280;44539;42.962;1.596;2023-02-21T08:05:16;97179.28;;;4.25;100.00
58771;BME280;44539;42.962;1.596;2023-02-21T08:07:42;97184.97;;;4.40;100.00
58771;BME280;44539;42.962;1.596;2023-02-21T08:10:08;97180.41;;;4.42;100.00
58771;BME280;44539;42.962;1.596;2023-02-21T08:12:33;97179.19;;;4.46;100.00
58771;BME280;44539;42.962;1.596;2023-02-21T08:14:59;97189.28;;;4.51;100.00
58771;BME280;44539;42.962;1.596;2023-02-21T08:17:25;97185.00;;;4.60;100.00
58771;BME280;44539;42.962;1.596;2023-02-21T08:19:50;97189.59;;;4.67;100.00
58771;BME280;44539;42.962;1.596;2023-02-21T08:22:17;97189.84;;;4.64;100.00
58771;BME280;44539;42.962;1.596;2023-02-21T08:24:43;97178.22;;;4.77;100.00
58771;BME280;44539;42.962;1.596;2023-02-21T08:27:08;97176.16;;;4.90;100.00
58771;BME280;44539;42.962;1.596;2023-02-21T08:29:34;97178.38;;;5.04;100.00
58771;BME280;44539;42.962;1.596;2023-02-21T08:31:59;97178.78;;;5.19;100.00
58771;BME280;44539;42.962;1.596;2023-02-21T08:34:25;97180.66;;;5.37;100.00
58771;BME280;44539;42.962;1.596;2023-02-21T08:36:53;97177.88;;;5.48;100.00
58771;BME280;44539;42.962;1.596;2023-02-21T08:39:19;97183.94;;;5.58;100.00
58771;BME280;44539;42.962;1.596;2023-02-21T08:41:45;97188.91;;;5.71;100.00
58771;BME280;44539;42.962;1.596;2023-02-21T08:44:13;97184.69;;;5.88;100.00
58771;BME280;44539;42.962;1.596;2023-02-21T08:46:46;97189.06;;;6.07;100.00
58771;BME280;44539;42.962;1.596;2023-02-21T08:49:11;97182.88;;;6.26;100.00
58771;BME280;44539;42.962;1.596;2023-02-21T08:51:37;97183.56;;;6.46;100.00
58771;BME280;44539;42.962;1.596;2023-02-21T08:54:02;97192.22;;;6.66;99.81
58771;BME280;44539;42.962;1.596;2023-02-21T08:56:28;97182.09;;;6.79;98.30
58771;BME280;44539;42.962;1.596;2023-02-21T08:58:55;97180.91;;;6.91;97.78
58771;BME280;44539;42.962;1.596;2023-02-21T09:01:22;97180.81;;;7.01;97.86
58771;BME280;44539;42.962;1.596;2023-02-21T09:03:48;97174.00;;;7.16;93.91
58771;BME280;44539;42.962;1.596;2023-02-21T09:06:14;97181.09;;;7.34;96.65
58771;BME280;44539;42.962;1.596;2023-02-21T09:08:40;97175.53;;;7.45;95.90
58771;BME280;44539;42.962;1.596;2023-02-21T09:11:06;97179.06;;;7.54;93.87
58771;BME280;44539;42.962;1.596;2023-02-21T09:13:32;97181.09;;;7.60;94.43
58771;BME280;44539;42.962;1.596;2023-02-21T09:15:59;97184.47;;;7.78;94.11
58771;BME280;44539;42.962;1.596;2023-02-21T09:18:26;97184.38;;;7.88;91.65
58771;BME280;44539;42.962;1.596;2023-02-21T09:20:51;97188.22;;;7.94;92.24
58771;BME280;44539;42.962;1.596;2023-02-21T09:23:18;97185.94;;;7.99;92.31
58771;BME280;44539;42.962;1.596;2023-02-21T09:25:45;97187.75;;;7.98;94.10
58771;BME280;44539;42.962;1.596;2023-02-21T09:28:10;97193.03;;;7.98;96.27
58771;BME280;44539;42.962;1.596;2023-02-21T09:30:36;97194.00;;;7.97;96.18
58771;BME280;44539;42.962;1.596;2023-02-21T09:33:01;97203.97;;;8.04;95.43
58771;BME280;44539;42.962;1.596;2023-02-21T09:35:27;97201.03;;;8.07;95.78
58771;BME280;44539;42.962;1.596;2023-02-21T09:37:55;97205.00;;;8.11;97.17
58771;BME280;44539;42.962;1.596;2023-02-21T09:40:42;97211.97;;;8.20;96.45
58771;BME280;44539;42.962;1.596;2023-02-21T09:43:50;97215.16;;;8.32;94.64
58771;BME280;44539;42.962;1.596;2023-02-21T09:46:24;97207.59;;;8.37;94.39
58771;BME280;44539;42.962;1.596;2023-02-21T09:48:52;97216.41;;;8.46;95.61
58771;BME280;44539;42.962;1.596;2023-02-21T09:51:18;97215.59;;;8.53;92.34
58771;BME280;44539;42.962;1.596;2023-02-21T09:53:46;97216.97;;;8.66;90.33
58771;BME280;44539;42.962;1.596;2023-02-21T09:56:32;97211.53;;;8.75;92.17
58771;BME280;44539;42.962;1.596;2023-02-21T09:58:59;97219.81;;;8.81;90.36
58771;BME280;44539;42.962;1.596;2023-02-21T10:01:44;97221.66;;;8.88;91.85
58771;BME280;44539;42.962;1.596;2023-02-21T10:07:12;97223.16;;;8.99;91.77
58771;BME280;44539;42.962;1.596;2023-02-21T10:09:55;97224.50;;;9.03;91.03
58771;BME280;44539;42.962;1.596;2023-02-21T10:12:30;97223.19;;;9.07;89.86
58771;BME280;44539;42.962;1.596;2023-02-21T10:15:13;97221.53;;;9.14;88.65
58771;BME280;44539;42.962;1.596;2023-02-21T10:20:29;97218.38;;;9.27;87.76
58771;BME280;44539;42.962;1.596;2023-02-21T10:22:56;97218.03;;;9.38;86.67
58771;BME280;44539;42.962;1.596;2023-02-21T10:25:32;97222.38;;;9.48;85.09
58771;BME280;44539;42.962;1.596;2023-02-21T10:28:00;97220.84;;;9.61;84.95
58771;BME280;44539;42.962;1.596;2023-02-21T10:32:53;97217.53;;;9.84;84.92
58771;BME280;44539;42.962;1.596;2023-02-21T10:35:18;97213.69;;;9.95;83.41
58771;BME280;44539;42.962;1.596;2023-02-21T10:37:47;97217.00;;;9.97;83.35
58771;BME280;44539;42.962;1.596;2023-02-21T10:40:44;97207.50;;;10.02;83.35
58771;BME280;44539;42.962;1.596;2023-02-21T10:43:20;97212.78;;;10.19;82.41
58771;BME280;44539;42.962;1.596;2023-02-21T10:46:00;97209.44;;;10.25;81.78
58771;BME280;44539;42.962;1.596;2023-02-21T10:48:33;97208.44;;;10.34;81.29
58771;BME280;44539;42.962;1.596;2023-02-21T10:51:06;97200.09;;;10.46;81.09
58771;BME280;44539;42.962;1.596;2023-02-21T10:53:35;97199.22;;;10.53;79.88
58771;BME280;44539;42.962;1.596;2023-02-21T10:58:52;97197.66;;;10.67;79.43
58771;BME280;44539;42.962;1.596;2023-02-21T11:04:04;97184.06;;;10.93;80.68
58771;BME280;44539;42.962;1.596;2023-02-21T11:08:56;97180.16;;;11.04;79.22
58771;BME280;44539;42.962;1.596;2023-02-21T11:11:58;97164.78;;;11.14;78.58
58771;BME280;44539;42.962;1.596;2023-02-21T11:14:24;97169.31;;;11.29;74.12
58771;BME280;44539;42.962;1.596;2023-02-21T11:17:09;97179.88;;;11.37;74.22
58771;BME280;44539;42.962;1.596;2023-02-21T11:22:25;97168.25;;;11.38;76.75
58771;BME280;44539;42.962;1.596;2023-02-21T11:25:22;97158.59;;;11.37;76.43
58771;BME280;44539;42.962;1.596;2023-02-21T11:30:34;97156.22;;;11.27;78.40
58771;BME280;44539;42.962;1.596;2023-02-21T11:33:01;97153.72;;;11.26;79.13
58771;BME280;44539;42.962;1.596;2023-02-21T11:35:34;97150.91;;;11.27;79.24
58771;BME280;44539;42.962;1.596;2023-02-21T11:38:07;97148.41;;;11.26;79.51
58771;BME280;44539;42.962;1.596;2023-02-21T11:40:41;97141.63;;;11.23;78.90
58771;BME280;44539;42.962;1.596;2023-02-21T11:43:26;97134.13;;;11.27;80.80
58771;BME280;44539;42.962;1.596;2023-02-21T11:48:28;97122.09;;;11.31;78.71
58771;BME280;44539;42.962;1.596;2023-02-21T11:51:00;97114.97;;;11.31;80.19
58771;BME280;44539;42.962;1.596;2023-02-21T11:53:38;97117.09;;;11.36;81.00
58771;BME280;44539;42.962;1.596;2023-02-21T11:56:16;97111.13;;;11.34;79.30
58771;BME280;44539;42.962;1.596;2023-02-21T12:01:52;97111.28;;;11.32;78.59
58771;BME280;44539;42.962;1.596;2023-02-21T12:04:37;97107.25;;;11.36;78.33
58771;BME280;44539;42.962;1.596;2023-02-21T12:13:28;97085.28;;;11.57;78.31
58771;BME280;44539;42.962;1.596;2023-02-21T12:20:59;97077.22;;;11.95;75.94
58771;BME280;44539;42.962;1.596;2023-02-21T12:43:36;97029.66;;;14.59;63.15
58771;BME280;44539;42.962;1.596;2023-02-21T12:46:21;97035.03;;;14.73;61.27
58771;BME280;44539;42.962;1.596;2023-02-21T12:51:25;97026.19;;;14.99;61.60
58771;BME280;44539;42.962;1.596;2023-02-21T12:54:11;97019.00;;;15.19;60.81
58771;BME280;44539;42.962;1.596;2023-02-21T12:57:02;97010.13;;;15.32;60.29
58771;BME280;44539;42.962;1.596;2023-02-21T12:59:45;97013.16;;;15.56;60.01
58771;BME280;44539;42.962;1.596;2023-02-21T13:05:35;97001.09;;;15.98;58.13
58771;BME280;44539;42.962;1.596;2023-02-21T13:13:18;96985.97;;;16.10;57.52
58771;BME280;44539;42.962;1.596;2023-02-21T13:15:47;96984.72;;;16.13;57.60
58771;BME280;44539;42.962;1.596;2023-02-21T13:18:22;96986.59;;;16.06;57.29
58771;BME280;44539;42.962;1.596;2023-02-21T13:23:49;96984.53;;;16.08;56.64
58771;BME280;44539;42.962;1.596;2023-02-21T13:28:56;96984.34;;;16.73;55.06
58771;BME280;44539;42.962;1.596;2023-02-21T13:31:33;96977.56;;;16.96;53.64
58771;BME280;44539;42.962;1.596;2023-02-21T13:34:06;96965.75;;;17.22;54.48
58771;BME280;44539;42.962;1.596;2023-02-21T13:39:26;96964.94;;;17.76;52.21
58771;BME280;44539;42.962;1.596;2023-02-21T13:42:04;96965.78;;;17.95;52.19
58771;BME280;44539;42.962;1.596;2023-02-21T13:44:38;96966.84;;;17.94;52.20
58771;BME280;44539;42.962;1.596;2023-02-21T13:47:23;96964.41;;;18.05;51.15
58771;BME280;44539;42.962;1.596;2023-02-21T13:55:19;96958.53;;;17.96;50.59
